Parkhill, Canada
Current Conditions -  °F | °C
As of 11:00 AM on Friday 24 Oct 2014 (Local Time) from CYXU Reporting Station
Broken Clouds Broken Clouds  
Wind Chill: 44°   Ceiling: 24000
Heat Index: 46°   Visibility: 8mi
Dew Point: 45°   Wind: 6mph
Humidity: 93%   Direction: 270°W
Pressure: 30.06"   Gusts: NA
Location:  43.17°N, 81.68°W
Report Text: CYXU 241500Z 27005KT 8SM BKN240 08/07 A3006 RMK CI6 SLP187
Loading
Personal Weather Stations






























Interactive Weather Map
Tropical Storm Tracking
New forecast layout! Learn more

10-Day Weather Forecast

Advertisements
Track Severe Weather on mobile